Time;durP1;ratioP1;P1;durP2;ratioP2;P2;SDS_P1;SDS_P2;PMS_P1;PMS_P2;Temp;Humidity;BMP_temperature;BMP_pressure;BME280_temperature;BME280_humidity;BME280_pressure;Samples;Min_cycle;Max_cycle;Signal;HPM_P1;HPM_P2
2022/04/13 00:01:34;;;;;;;4.90;2.50;;;18.60;42.80;;;;;;5975869;29;20043;-69
2022/04/13 00:04:35;;;;;;;9.32;2.92;;;18.60;42.80;;;;;;5972814;29;20126;-70
2022/04/13 00:07:36;;;;;;;5.50;2.53;;;18.60;42.90;;;;;;5974984;29;20053;-70
2022/04/13 00:10:38;;;;;;;8.88;2.88;;;18.60;42.80;;;;;;5975206;29;20066;-69
2022/04/13 00:13:39;;;;;;;11.85;2.55;;;18.60;43.00;;;;;;5972955;29;20593;-70
2022/04/13 00:16:42;;;;;;;6.93;3.33;;;18.60;43.10;;;;;;5972617;29;20049;-70
2022/04/13 00:19:43;;;;;;;14.40;3.13;;;18.60;43.10;;;;;;5961844;29;20126;-70
2022/04/13 00:22:43;;;;;;;13.85;3.10;;;18.50;43.00;;;;;;5971753;29;20100;-70
2022/04/13 00:25:47;;;;;;;9.02;2.47;;;18.50;43.00;;;;;;5973163;29;20133;-69
2022/04/13 00:28:48;;;;;;;5.10;2.53;;;18.60;43.20;;;;;;5974673;29;20117;-70
2022/04/13 00:31:51;;;;;;;6.18;2.67;;;18.50;43.10;;;;;;5976802;29;20049;-69
2022/04/13 00:34:51;;;;;;;6.32;2.72;;;18.50;43.20;;;;;;5974845;29;20038;-70
2022/04/13 00:37:52;;;;;;;6.68;2.40;;;18.50;43.20;;;;;;5971458;29;20489;-69
2022/04/13 00:40:55;;;;;;;6.55;2.70;;;18.50;43.30;;;;;;5977165;29;20038;-70
2022/04/13 00:44:06;;;;;;;9.52;2.55;;;18.50;43.30;;;;;;5972820;29;20452;-70
2022/04/13 00:47:08;;;;;;;8.38;2.33;;;18.40;43.50;;;;;;5969109;29;20051;-70
2022/04/13 00:50:10;;;;;;;7.90;2.65;;;18.40;43.80;;;;;;5973824;29;20030;-70
2022/04/13 00:53:12;;;;;;;13.80;2.45;;;18.30;43.90;;;;;;5952606;29;20477;-70
2022/04/13 00:56:20;;;;;;;6.00;1.83;;;18.30;44.10;;;;;;5956339;29;20095;-70
2022/04/13 00:59:24;;;;;;;7.65;1.95;;;18.30;44.30;;;;;;5971600;29;20035;-70
2022/04/13 01:02:26;;;;;;;14.07;1.95;;;18.20;44.30;;;;;;5971711;29;20030;-70
2022/04/13 01:05:29;;;;;;;9.88;2.60;;;18.20;44.50;;;;;;5974040;29;22531;-70
2022/04/13 01:08:31;;;;;;;7.03;1.75;;;18.10;44.80;;;;;;5971432;29;20096;-70
2022/04/13 01:11:32;;;;;;;5.70;1.80;;;18.10;44.80;;;;;;5973924;29;20095;-70
2022/04/13 01:14:34;;;;;;;9.98;2.45;;;18.10;44.90;;;;;;5975063;29;20077;-70
2022/04/13 01:17:37;;;;;;;5.38;2.50;;;18.00;45.00;;;;;;5946737;29;20425;-70
2022/04/13 01:20:49;;;;;;;9.13;2.50;;;18.00;45.10;;;;;;5986811;29;20042;-70
2022/04/13 01:23:50;;;;;;;7.53;2.50;;;18.00;45.20;;;;;;5974433;29;20118;-70
2022/04/13 01:26:51;;;;;;;7.38;2.00;;;17.90;45.20;;;;;;5987722;29;20039;-70
2022/04/13 01:29:54;;;;;;;12.48;2.40;;;17.90;45.30;;;;;;5985683;29;20042;-70
2022/04/13 01:32:56;;;;;;;13.77;2.15;;;17.90;45.40;;;;;;5995581;29;20346;-70
2022/04/13 01:36:01;;;;;;;11.80;2.42;;;17.80;45.50;;;;;;5975953;29;20104;-70
2022/04/13 01:39:03;;;;;;;5.00;1.48;;;17.80;45.60;;;;;;5993742;29;20575;-70
2022/04/13 01:42:04;;;;;;;10.88;1.80;;;17.80;45.80;;;;;;5988886;29;20043;-69
2022/04/13 01:45:06;;;;;;;4.00;1.60;;;17.70;45.80;;;;;;5995556;29;20054;-70
2022/04/13 01:48:09;;;;;;;10.05;2.38;;;17.70;45.90;;;;;;5972898;29;20095;-69
2022/04/13 01:51:10;;;;;;;14.25;2.10;;;17.70;46.00;;;;;;5988519;29;20065;-69
2022/04/13 01:54:11;;;;;;;9.82;2.22;;;17.60;46.00;;;;;;5988807;29;20038;-70
2022/04/13 01:57:12;;;;;;;15.68;2.20;;;17.60;46.20;;;;;;5971951;29;20361;-69
2022/04/13 02:00:14;;;;;;;15.10;2.20;;;17.60;46.30;;;;;;5980627;29;20050;-70
2022/04/13 02:03:14;;;;;;;14.57;2.17;;;17.60;46.60;;;;;;5999457;29;20498;-69
2022/04/13 02:06:15;;;;;;;9.07;2.50;;;17.60;46.70;;;;;;5993447;29;20050;-70
2022/04/13 02:09:18;;;;;;;6.90;1.58;;;17.60;46.90;;;;;;5987757;29;20038;-69
2022/04/13 02:12:19;;;;;;;17.73;2.30;;;17.50;47.20;;;;;;5987953;29;20461;-70
2022/04/13 02:15:20;;;;;;;9.68;1.92;;;17.50;47.30;;;;;;5974128;29;20043;-70
2022/04/13 02:18:21;;;;;;;13.43;2.78;;;17.40;47.50;;;;;;5973652;29;20046;-70
2022/04/13 02:21:22;;;;;;;10.77;1.88;;;17.30;47.90;;;;;;5974304;29;20046;-70
2022/04/13 02:24:23;;;;;;;9.38;1.55;;;17.30;48.20;;;;;;5959552;29;20049;-70
2022/04/13 02:27:24;;;;;;;7.13;1.83;;;17.20;48.40;;;;;;5971202;29;20049;-68
2022/04/13 02:30:25;;;;;;;12.98;2.10;;;17.10;48.70;;;;;;5971405;29;20142;-69
2022/04/13 02:33:26;;;;;;;8.13;1.65;;;17.10;48.90;;;;;;5971447;29;20034;-68
2022/04/13 02:36:27;;;;;;;7.13;2.10;;;17.10;49.20;;;;;;5978219;29;20034;-69
2022/04/13 02:39:28;;;;;;;13.13;2.13;;;17.00;50.00;;;;;;5973863;29;20564;-69
2022/04/13 02:42:36;;;;;;;10.68;2.42;;;16.90;49.50;;;;;;5975108;29;20034;-68
2022/04/13 02:45:37;;;;;;;8.90;1.65;;;16.90;49.80;;;;;;5974606;29;20144;-70
2022/04/13 02:48:38;;;;;;;14.93;2.20;;;16.80;49.80;;;;;;5954007;29;20039;-68
2022/04/13 02:51:39;;;;;;;10.85;2.22;;;16.80;50.10;;;;;;5976078;29;20047;-69
2022/04/13 02:54:40;;;;;;;3.60;1.30;;;16.80;50.30;;;;;;5975210;29;20054;-69
2022/04/13 02:57:40;;;;;;;13.80;1.60;;;16.80;50.40;;;;;;5973589;29;20230;-69
2022/04/13 03:00:42;;;;;;;6.75;1.98;;;16.70;50.40;;;;;;5978623;29;20461;-69
2022/04/13 03:03:43;;;;;;;12.57;1.52;;;16.70;50.50;;;;;;5975032;29;20038;-69
2022/04/13 03:06:44;;;;;;;14.43;2.08;;;16.70;50.70;;;;;;5975195;29;20070;-69
2022/04/13 03:09:45;;;;;;;9.32;1.52;;;16.70;50.90;;;;;;5973275;29;20038;-69
2022/04/13 03:12:46;;;;;;;7.50;2.20;;;16.70;50.80;;;;;;5977871;29;20061;-69
2022/04/13 03:15:47;;;;;;;15.88;2.40;;;16.60;50.90;;;;;;5984883;29;20494;-70
2022/04/13 03:18:49;;;;;;;19.80;1.80;;;16.60;51.00;;;;;;5984608;29;20046;-69
2022/04/13 03:21:51;;;;;;;11.95;1.80;;;16.60;51.00;;;;;;5983910;29;20050;-68
2022/04/13 03:24:52;;;;;;;15.50;1.48;;;16.60;51.10;;;;;;5992841;29;20042;-69
2022/04/13 03:27:53;;;;;;;15.07;2.47;;;16.60;51.20;;;;;;5961787;29;20034;-69
2022/04/13 03:30:54;;;;;;;11.18;1.60;;;16.60;51.20;;;;;;5986169;29;20066;-69
2022/04/13 03:33:55;;;;;;;9.60;1.90;;;16.60;51.20;;;;;;5993686;29;20096;-69
2022/04/13 03:36:57;;;;;;;16.05;2.08;;;16.60;51.30;;;;;;5987272;29;20644;-69
2022/04/13 03:39:58;;;;;;;10.63;1.75;;;16.60;51.30;;;;;;5969198;29;20034;-69
2022/04/13 03:42:59;;;;;;;18.00;2.20;;;16.60;51.20;;;;;;5983833;29;20342;-69
2022/04/13 03:46:00;;;;;;;15.15;1.73;;;16.50;51.20;;;;;;5972396;29;20051;-69
2022/04/13 03:49:01;;;;;;;10.95;1.70;;;16.60;52.00;;;;;;5984041;29;20042;-69
2022/04/13 03:52:02;;;;;;;14.80;1.67;;;16.60;51.30;;;;;;5984355;29;20134;-69
2022/04/13 03:55:05;;;;;;;14.73;2.00;;;16.60;51.50;;;;;;5969632;29;20034;-69
2022/04/13 03:58:06;;;;;;;16.05;1.90;;;16.50;51.50;;;;;;5969249;29;20438;-69
2022/04/13 04:01:08;;;;;;;10.55;2.00;;;16.50;51.50;;;;;;5984520;29;20049;-69
2022/04/13 04:04:10;;;;;;;13.85;1.63;;;16.50;51.50;;;;;;5986212;29;20026;-69
2022/04/13 04:07:10;;;;;;;28.80;2.13;;;16.50;51.60;;;;;;5981664;29;20088;-69
2022/04/13 04:10:12;;;;;;;11.80;1.83;;;16.50;51.70;;;;;;5983045;29;20053;-69
2022/04/13 04:13:12;;;;;;;16.73;2.30;;;16.50;51.80;;;;;;5983137;29;20082;-69
2022/04/13 04:16:14;;;;;;;13.60;2.78;;;16.50;51.80;;;;;;5971118;29;20125;-69
2022/04/13 04:19:15;;;;;;;18.48;2.03;;;16.50;51.80;;;;;;5973376;29;20477;-69
2022/04/13 04:22:15;;;;;;;9.55;2.55;;;16.50;51.90;;;;;;5961802;29;20038;-69
2022/04/13 04:25:16;;;;;;;15.55;2.28;;;16.50;51.90;;;;;;5971361;29;20108;-69
2022/04/13 04:28:17;;;;;;;13.13;3.30;;;16.50;52.00;;;;;;5968257;29;20039;-69
2022/04/13 04:31:49;;;;;;;12.35;2.30;;;16.40;52.00;;;;;;5971952;29;20503;-69
2022/04/13 04:34:42;;;;;;;15.38;2.50;;;16.40;52.10;;;;;;5949602;29;20129;-69
2022/04/13 04:37:42;;;;;;;8.57;1.90;;;16.40;52.10;;;;;;5971281;29;20087;-69
2022/04/13 04:40:43;;;;;;;11.98;2.10;;;16.40;52.20;;;;;;5969971;29;20034;-68
2022/04/13 04:43:44;;;;;;;9.32;2.13;;;16.40;52.20;;;;;;5966320;29;20035;-69
2022/04/13 04:46:45;;;;;;;6.82;1.80;;;16.40;52.30;;;;;;5970043;29;20027;-69
2022/04/13 04:49:46;;;;;;;19.48;2.17;;;16.40;52.30;;;;;;5969206;29;20354;-69
2022/04/13 04:52:47;;;;;;;16.75;2.80;;;16.40;52.40;;;;;;5967506;29;20048;-69
2022/04/13 04:55:48;;;;;;;9.55;1.40;;;16.40;52.50;;;;;;5969947;29;20031;-69
2022/04/13 04:58:49;;;;;;;13.63;1.83;;;16.40;52.50;;;;;;5969271;29;20039;-69
2022/04/13 05:01:50;;;;;;;15.38;2.10;;;16.40;52.40;;;;;;5966576;29;20487;-70
2022/04/13 05:04:51;;;;;;;11.18;2.20;;;16.40;52.40;;;;;;5967661;29;20072;-69
2022/04/13 05:07:52;;;;;;;11.50;2.13;;;16.40;52.40;;;;;;5970415;29;20034;-69
2022/04/13 05:10:53;;;;;;;9.00;2.05;;;16.40;52.40;;;;;;5957297;29;20147;-70
2022/04/13 05:13:54;;;;;;;13.38;2.15;;;16.30;52.30;;;;;;5951595;29;20062;-69
2022/04/13 05:16:54;;;;;;;5.30;2.28;;;16.30;52.20;;;;;;5957102;29;20362;-69
2022/04/13 05:19:55;;;;;;;18.25;2.60;;;16.30;52.20;;;;;;5955732;29;20046;-70
2022/04/13 05:22:56;;;;;;;6.18;2.03;;;16.30;52.20;;;;;;5958820;29;20046;-69
2022/04/13 05:25:57;;;;;;;5.05;2.08;;;16.40;52.20;;;;;;5978231;29;20046;-69
2022/04/13 05:28:58;;;;;;;14.45;2.38;;;16.40;52.10;;;;;;5954427;29;20047;-68
2022/04/13 05:31:59;;;;;;;6.35;2.25;;;16.40;52.00;;;;;;5959898;29;20049;-69
2022/04/13 05:35:01;;;;;;;8.48;2.15;;;16.40;51.90;;;;;;5979252;29;20099;-69
2022/04/13 05:38:05;;;;;;;6.20;2.15;;;16.40;51.90;;;;;;5975885;29;20043;-69
2022/04/13 05:41:05;;;;;;;9.43;2.63;;;16.40;51.80;;;;;;5954496;29;20034;-70
2022/04/13 05:44:07;;;;;;;12.13;2.33;;;16.50;51.80;;;;;;5973971;29;20138;-69
2022/04/13 05:47:07;;;;;;;11.40;2.50;;;16.50;51.70;;;;;;5958242;29;20107;-69
2022/04/13 05:50:09;;;;;;;16.67;2.17;;;16.50;51.70;;;;;;5956150;29;20042;-69
2022/04/13 05:53:10;;;;;;;15.30;2.63;;;16.50;51.80;;;;;;5975047;29;20480;-69
2022/04/13 05:56:11;;;;;;;11.77;2.92;;;16.40;51.90;;;;;;5958001;29;20035;-68
2022/04/13 05:59:12;;;;;;;25.17;2.95;;;16.40;52.10;;;;;;5953587;29;20048;-69
2022/04/13 06:02:13;;;;;;;16.08;3.63;;;16.40;52.20;;;;;;5953473;29;20129;-70
2022/04/13 06:05:14;;;;;;;10.07;2.38;;;16.30;52.30;;;;;;5962624;29;20125;-69
2022/04/13 06:08:15;;;;;;;11.20;2.03;;;16.40;52.50;;;;;;5961014;29;20067;-69
2022/04/13 06:11:16;;;;;;;10.10;2.67;;;16.40;52.60;;;;;;5960277;29;20069;-69
2022/04/13 06:14:17;;;;;;;11.80;2.33;;;16.40;52.60;;;;;;5976820;29;20042;-69
2022/04/13 06:17:18;;;;;;;11.20;2.60;;;16.40;52.60;;;;;;5987448;29;20467;-69
2022/04/13 06:20:19;;;;;;;9.43;2.40;;;16.40;52.60;;;;;;5987141;29;20037;-68
2022/04/13 06:23:19;;;;;;;10.07;2.58;;;16.40;52.60;;;;;;5982968;29;20488;-69
2022/04/13 06:26:20;;;;;;;10.48;3.05;;;16.40;52.50;;;;;;5967844;29;20038;-69
2022/04/13 06:29:21;;;;;;;6.43;1.75;;;16.60;52.50;;;;;;5981858;29;20732;-69
2022/04/13 06:32:30;;;;;;;11.38;2.53;;;16.70;52.40;;;;;;5961566;29;20438;-69
2022/04/13 06:35:31;;;;;;;16.13;2.65;;;16.80;52.20;;;;;;5981114;29;20042;-69
2022/04/13 06:38:32;;;;;;;22.45;2.67;;;17.00;52.00;;;;;;5985441;29;20484;-69
2022/04/13 06:41:33;;;;;;;18.45;2.83;;;17.10;51.80;;;;;;5968564;29;20046;-70
2022/04/13 06:44:34;;;;;;;11.23;2.65;;;17.20;51.50;;;;;;5971196;29;20057;-70
2022/04/13 06:47:35;;;;;;;16.60;3.28;;;17.40;51.30;;;;;;5981001;29;20046;-69
2022/04/13 06:50:36;;;;;;;10.55;2.78;;;17.50;51.10;;;;;;5966284;29;20050;-69
2022/04/13 06:53:37;;;;;;;12.05;3.05;;;17.50;50.90;;;;;;5983601;29;20065;-70
2022/04/13 06:56:39;;;;;;;19.15;2.70;;;17.70;50.80;;;;;;5959327;29;20071;-69
2022/04/13 06:59:40;;;;;;;11.00;2.45;;;17.80;50.60;;;;;;5983170;29;20456;-70
2022/04/13 07:02:41;;;;;;;17.55;2.42;;;17.90;50.50;;;;;;5983975;29;20110;-69
2022/04/13 07:05:42;;;;;;;16.90;2.78;;;18.00;50.20;;;;;;5987244;29;20398;-69
2022/04/13 07:08:43;;;;;;;21.83;2.55;;;18.10;50.00;;;;;;5983145;29;20119;-69
2022/04/13 07:11:44;;;;;;;13.20;1.90;;;18.10;49.90;;;;;;5982658;29;20046;-70
2022/04/13 07:14:45;;;;;;;15.82;2.80;;;18.10;49.90;;;;;;5976764;29;20051;-69
2022/04/13 07:17:46;;;;;;;11.63;2.35;;;18.20;49.70;;;;;;5963231;29;20452;-69
2022/04/13 07:20:47;;;;;;;24.45;2.95;;;18.30;50.10;;;;;;5959801;29;20039;-69
2022/04/13 07:23:48;;;;;;;24.92;2.40;;;18.40;49.40;;;;;;5959495;29;20133;-70
2022/04/13 07:26:49;;;;;;;14.13;2.30;;;18.50;49.10;;;;;;5959471;29;20043;-70
2022/04/13 07:29:50;;;;;;;9.10;2.35;;;18.70;48.90;;;;;;5982773;29;20050;-69
2022/04/13 07:33:01;;;;;;;12.65;2.42;;;18.70;48.60;;;;;;5961036;29;20035;-70
2022/04/13 07:36:02;;;;;;;15.57;2.65;;;18.70;48.50;;;;;;5959124;29;20480;-70
2022/04/13 07:39:03;;;;;;;10.48;2.08;;;18.80;48.50;;;;;;5959582;29;20035;-71
2022/04/13 07:42:04;;;;;;;8.18;1.85;;;18.90;48.40;;;;;;5958945;29;20042;-70
2022/04/13 07:45:07;;;;;;;20.25;3.10;;;19.00;48.20;;;;;;5979673;29;20046;-69
2022/04/13 07:48:07;;;;;;;12.05;2.38;;;19.20;48.10;;;;;;5971556;29;20046;-69
2022/04/13 07:51:08;;;;;;;7.63;2.10;;;19.20;47.80;;;;;;5980661;29;20050;-70
2022/04/13 07:54:09;;;;;;;11.60;2.42;;;19.40;47.40;;;;;;5971705;29;20103;-70
2022/04/13 07:57:10;;;;;;;17.25;2.50;;;19.50;47.20;;;;;;5959850;29;20122;-69
2022/04/13 08:00:12;;;;;;;20.83;2.30;;;19.50;47.00;;;;;;5971549;29;20042;-68
2022/04/13 08:03:15;;;;;;;14.05;1.88;;;19.60;47.40;;;;;;5959112;29;20122;-69
2022/04/13 08:06:16;;;;;;;9.05;1.98;;;19.70;46.50;;;;;;5959722;29;20047;-69
2022/04/13 08:09:17;;;;;;;18.45;2.20;;;19.60;46.30;;;;;;5954898;29;20069;-70
2022/04/13 08:12:18;;;;;;;15.63;2.20;;;19.70;46.10;;;;;;5959318;29;20043;-70
2022/04/13 08:15:20;;;;;;;21.52;2.95;;;19.80;46.00;;;;;;5978320;29;20057;-70
2022/04/13 08:18:21;;;;;;;16.38;2.78;;;20.00;45.80;;;;;;5981170;29;20114;-69
2022/04/13 08:21:22;;;;;;;14.93;2.83;;;20.10;45.70;;;;;;5967974;29;20424;-69
2022/04/13 08:24:23;;;;;;;28.10;3.20;;;20.20;45.60;;;;;;5981061;29;20046;-72
2022/04/13 08:27:24;;;;;;;15.73;2.47;;;20.40;45.40;;;;;;5981156;29;20072;-69
2022/04/13 08:30:26;;;;;;;25.38;2.70;;;20.40;45.10;;;;;;5980312;29;20050;-70
2022/04/13 08:33:27;;;;;;;11.43;2.17;;;20.60;44.90;;;;;;5980730;29;20074;-69
2022/04/13 08:36:28;;;;;;;12.48;2.38;;;20.70;44.60;;;;;;5984423;29;20125;-71
2022/04/13 08:39:29;;;;;;;14.52;3.03;;;20.80;44.50;;;;;;5979823;29;20054;-70
2022/04/13 08:42:56;;;;;;;12.95;2.85;;;20.90;44.30;;;;;;5977054;29;20078;-70
2022/04/13 08:46:01;;;;;;;12.95;2.00;;;21.00;44.00;;;;;;5977944;29;20042;-70
2022/04/13 08:49:07;;;;;;;19.67;2.85;;;21.20;43.70;;;;;;5978856;29;20054;-71
2022/04/13 08:52:09;;;;;;;16.23;2.30;;;21.30;43.30;;;;;;5962613;29;20046;-70
2022/04/13 08:55:14;;;;;;;15.70;2.72;;;21.50;43.00;;;;;;5979551;29;20057;-70
2022/04/13 08:58:47;;;;;;;11.75;2.38;;;21.60;42.70;;;;;;5981411;29;20110;-70
2022/04/13 09:02:21;;;;;;;10.23;1.90;;;21.70;42.40;;;;;;5978348;29;20038;-70
2022/04/13 09:05:31;;;;;;;14.52;2.47;;;21.90;42.10;;;;;;5979116;29;20361;-70
2022/04/13 09:08:39;;;;;;;12.75;2.50;;;22.00;41.80;;;;;;5977819;29;20042;-69
2022/04/13 09:11:44;;;;;;;13.48;2.13;;;22.10;41.60;;;;;;5952961;29;20042;-70
2022/04/13 09:14:46;;;;;;;14.82;2.13;;;22.20;41.30;;;;;;5986276;29;20060;-70
2022/04/13 09:17:47;;;;;;;12.65;2.70;;;22.30;40.90;;;;;;5980481;29;20079;-70
2022/04/13 09:20:48;;;;;;;12.80;1.65;;;22.40;40.50;;;;;;5985544;29;20129;-70
2022/04/13 09:23:49;;;;;;;14.02;1.98;;;22.40;40.10;;;;;;5962818;29;20038;-70
2022/04/13 09:26:51;;;;;;;8.45;1.33;;;22.50;39.60;;;;;;5979552;29;20044;-71
2022/04/13 09:29:52;;;;;;;12.10;1.98;;;22.50;38.90;;;;;;5979343;29;20076;-69
2022/04/13 09:32:54;;;;;;;8.23;1.60;;;22.40;38.50;;;;;;5984023;29;20045;-69
2022/04/13 09:35:55;;;;;;;8.15;1.20;;;22.30;38.00;;;;;;5975540;29;20046;-69
2022/04/13 09:38:57;;;;;;;24.92;1.95;;;22.30;37.70;;;;;;5986613;29;20083;-70
2022/04/13 09:42:02;;;;;;;21.52;1.67;;;22.20;37.60;;;;;;5978995;29;20038;-70
2022/04/13 09:45:04;;;;;;;10.23;2.25;;;22.20;37.80;;;;;;5985408;29;20111;-70
2022/04/13 09:48:09;;;;;;;14.27;1.80;;;22.20;37.70;;;;;;5992598;29;20077;-69
2022/04/13 09:51:10;;;;;;;6.55;1.90;;;22.10;37.60;;;;;;5979664;29;20038;-71
2022/04/13 09:54:12;;;;;;;10.23;1.73;;;22.20;37.50;;;;;;5985041;29;20095;-69
2022/04/13 09:57:23;;;;;;;12.45;1.98;;;22.10;37.30;;;;;;5968781;29;20458;-69
2022/04/13 10:00:24;;;;;;;8.48;1.83;;;22.10;37.30;;;;;;5981345;29;20034;-68
2022/04/13 10:03:25;;;;;;;5.35;1.52;;;22.10;37.20;;;;;;5984493;29;20058;-70
2022/04/13 10:06:30;;;;;;;5.40;1.60;;;22.20;37.00;;;;;;5984142;29;20392;-68
2022/04/13 10:09:31;;;;;;;5.18;1.13;;;22.30;36.80;;;;;;5982749;29;20149;-69
2022/04/13 10:12:48;;;;;;;13.10;1.83;;;22.40;36.40;;;;;;5979059;29;20039;-70
2022/04/13 10:15:57;;;;;;;8.57;1.45;;;22.20;36.20;;;;;;5979373;29;20149;-68
2022/04/13 10:19:00;;;;;;;3.85;1.00;;;22.30;35.70;;;;;;5968242;29;20042;-69
2022/04/13 10:22:02;;;;;;;6.20;1.90;;;22.40;35.40;;;;;;5984573;29;20061;-69
2022/04/13 10:25:25;;;;;;;6.45;1.80;;;22.50;35.10;;;;;;5981801;29;20117;-70
2022/04/13 10:28:26;;;;;;;6.25;1.33;;;22.70;34.90;;;;;;5985377;29;20077;-69
2022/04/13 10:31:27;;;;;;;5.22;1.38;;;22.90;34.60;;;;;;5981630;29;20097;-69
2022/04/13 10:34:30;;;;;;;5.57;1.08;;;23.10;34.30;;;;;;5993130;29;20035;-68
2022/04/13 10:37:31;;;;;;;15.85;1.63;;;23.20;34.00;;;;;;5986583;29;20039;-69
2022/04/13 10:40:41;;;;;;;7.90;1.40;;;23.40;33.40;;;;;;5982708;29;20039;-69
2022/04/13 10:43:47;;;;;;;3.20;1.63;;;23.70;33.10;;;;;;5990392;29;20049;-69
2022/04/13 10:46:52;;;;;;;11.27;1.83;;;23.90;32.40;;;;;;5984055;29;20114;-69
2022/04/13 10:49:57;;;;;;;7.50;1.88;;;24.10;31.70;;;;;;5984402;29;20035;-68
2022/04/13 10:53:27;;;;;;;10.07;1.70;;;24.20;31.40;;;;;;5992011;29;20459;-69
2022/04/13 10:56:32;;;;;;;7.25;1.27;;;24.30;31.30;;;;;;5978431;29;20035;-68
2022/04/13 10:59:43;;;;;;;7.78;1.73;;;24.60;31.20;;;;;;5981469;29;20419;-70
2022/04/13 11:02:53;;;;;;;8.55;1.45;;;24.90;30.60;;;;;;5980777;29;20117;-69
2022/04/13 11:05:54;;;;;;;7.65;1.35;;;25.10;30.20;;;;;;5987345;29;20157;-69
2022/04/13 11:09:07;;;;;;;5.95;1.42;;;25.40;30.20;;;;;;5982692;29;20047;-70
2022/04/13 11:12:09;;;;;;;7.53;1.48;;;25.60;30.00;;;;;;5982990;29;20503;-69
2022/04/13 11:15:10;;;;;;;3.75;1.38;;;25.80;29.60;;;;;;5979598;29;20075;-69
2022/04/13 11:18:17;;;;;;;2.53;1.25;;;26.10;29.50;;;;;;5979345;29;20039;-70
2022/04/13 11:21:18;;;;;;;8.88;1.80;;;26.40;29.20;;;;;;5988193;29;20035;-71
2022/04/13 11:24:36;;;;;;;6.70;2.03;;;26.50;29.00;;;;;;5981748;29;20092;-71
2022/04/13 11:27:53;;;;;;;10.75;3.15;;;26.60;28.70;;;;;;5978946;29;20546;-72
2022/04/13 11:31:02;;;;;;;23.77;5.35;;;26.70;28.70;;;;;;5983962;29;20425;-71
2022/04/13 11:34:06;;;;;;;12.80;3.20;;;26.80;28.90;;;;;;5968999;29;20038;-71
2022/04/13 11:37:10;;;;;;;11.50;4.32;;;26.90;28.90;;;;;;5969768;29;20577;-72
2022/04/13 11:40:21;;;;;;;7.85;2.25;;;27.00;28.90;;;;;;5982693;29;20075;-71
2022/04/13 11:43:22;;;;;;;9.65;2.67;;;27.20;28.80;;;;;;5981089;29;20528;-70
2022/04/13 11:46:39;;;;;;;9.50;2.10;;;27.50;28.70;;;;;;5988366;29;20050;-71
2022/04/13 11:50:00;;;;;;;10.65;3.63;;;27.80;28.40;;;;;;5950802;29;20074;-70
2022/04/13 11:53:10;;;;;;;13.20;2.55;;;27.90;28.20;;;;;;5965055;29;20495;-70
2022/04/13 11:56:11;;;;;;;8.90;2.15;;;28.30;28.20;;;;;;5982056;29;20046;-70
2022/04/13 11:59:15;;;;;;;5.65;1.83;;;28.40;27.90;;;;;;5981130;29;20039;-71
2022/04/13 12:02:16;;;;;;;9.57;2.22;;;28.50;27.80;;;;;;5980547;29;20078;-71
2022/04/13 12:05:18;;;;;;;10.73;1.70;;;28.60;27.80;;;;;;5979981;29;20030;-72
2022/04/13 12:08:30;;;;;;;9.88;2.00;;;28.60;27.70;;;;;;5981703;29;20038;-71
2022/04/13 12:11:46;;;;;;;9.48;1.90;;;28.70;27.60;;;;;;5980298;29;20054;-71
2022/04/13 12:14:56;;;;;;;8.68;1.70;;;28.90;27.50;;;;;;5966154;29;20051;-70
2022/04/13 12:17:57;;;;;;;19.55;9.70;;;29.20;27.30;;;;;;5978529;29;20077;-69
2022/04/13 12:21:11;;;;;;;7.93;1.92;;;29.50;26.90;;;;;;5978654;29;20361;-69
2022/04/13 12:24:12;;;;;;;13.40;2.42;;;30.00;26.40;;;;;;5941044;29;20046;-71
2022/04/13 12:27:13;;;;;;;9.27;2.58;;;30.50;26.00;;;;;;5956327;29;20095;-71
2022/04/13 12:30:18;;;;;;;15.40;2.15;;;30.80;25.60;;;;;;5957219;29;20050;-70
2022/04/13 12:33:23;;;;;;;10.07;1.65;;;31.10;25.40;;;;;;5971217;29;20062;-70
2022/04/13 12:36:23;;;;;;;14.23;2.17;;;31.40;25.10;;;;;;5958658;29;20572;-70
2022/04/13 12:39:30;;;;;;;10.30;2.08;;;31.70;24.50;;;;;;5956822;29;20053;-71
2022/04/13 12:42:33;;;;;;;12.55;1.63;;;32.00;24.20;;;;;;5975087;29;20099;-71
2022/04/13 12:45:34;;;;;;;13.60;1.52;;;32.30;23.80;;;;;;5956202;29;20065;-71
2022/04/13 12:48:35;;;;;;;10.20;1.92;;;32.40;23.60;;;;;;5958613;29;20047;-71
2022/04/13 12:51:38;;;;;;;12.10;2.13;;;32.50;23.20;;;;;;5957679;29;20039;-72
2022/04/13 12:54:41;;;;;;;9.73;2.42;;;32.70;23.00;;;;;;5977229;29;20138;-70
2022/04/13 12:57:43;;;;;;;13.05;1.83;;;33.00;22.60;;;;;;5957905;29;20475;-70
2022/04/13 13:00:52;;;;;;;11.18;1.50;;;33.20;22.60;;;;;;5959945;29;20039;-71
2022/04/13 13:03:55;;;;;;;11.70;1.77;;;33.30;22.20;;;;;;5955917;29;20038;-71
2022/04/13 13:06:58;;;;;;;8.35;1.85;;;33.40;22.10;;;;;;5958284;29;20090;-71
2022/04/13 13:09:59;;;;;;;8.52;2.17;;;33.40;21.80;;;;;;5959960;29;20039;-71
2022/04/13 13:13:11;;;;;;;7.75;1.55;;;33.50;21.60;;;;;;5961199;29;20054;-71
2022/04/13 13:16:34;;;;;;;7.95;1.30;;;33.40;21.50;;;;;;5982116;29;20138;-71
2022/04/13 13:19:35;;;;;;;4.72;1.02;;;33.50;21.40;;;;;;5988635;29;20050;-71
2022/04/13 13:22:40;;;;;;;6.68;1.40;;;33.80;21.20;;;;;;5987633;29;20058;-71
2022/04/13 13:25:41;;;;;;;16.65;2.17;;;34.30;20.90;;;;;;5979381;29;20387;-71
2022/04/13 13:28:42;;;;;;;8.85;1.90;;;34.70;20.70;;;;;;5980326;29;20461;-71
2022/04/13 13:31:43;;;;;;;10.77;2.10;;;35.00;20.30;;;;;;5976512;29;20039;-70
2022/04/13 13:34:53;;;;;;;9.52;2.20;;;35.30;20.10;;;;;;5984538;29;20047;-71
2022/04/13 13:38:03;;;;;;;6.03;1.42;;;35.30;19.80;;;;;;5962997;29;20042;-71
2022/04/13 13:41:11;;;;;;;6.93;2.05;;;35.40;19.80;;;;;;5968695;29;20333;-70
2022/04/13 13:44:24;;;;;;;7.22;1.48;;;35.60;19.80;;;;;;5964959;29;20042;-71
2022/04/13 13:47:27;;;;;;;12.00;1.90;;;35.70;19.40;;;;;;5978731;29;20685;-70
2022/04/13 13:50:29;;;;;;;5.95;1.52;;;35.80;19.40;;;;;;5983622;29;20110;-70
2022/04/13 13:53:30;;;;;;;10.80;1.88;;;35.70;19.30;;;;;;5981344;29;20638;-71
2022/04/13 13:56:31;;;;;;;4.97;1.10;;;35.50;19.40;;;;;;5979400;29;20070;-70
2022/04/13 13:59:32;;;;;;;7.93;1.52;;;35.40;19.50;;;;;;5979512;29;20039;-71
2022/04/13 14:02:33;;;;;;;9.05;1.58;;;35.60;19.40;;;;;;5981164;29;20045;-70
2022/04/13 14:05:35;;;;;;;7.40;2.20;;;35.50;19.20;;;;;;5977934;29;20097;-71
2022/04/13 14:08:35;;;;;;;3.63;1.33;;;35.40;19.20;;;;;;5986658;29;20047;-71
2022/04/13 14:11:37;;;;;;;9.65;1.88;;;34.60;19.60;;;;;;5979654;29;20499;-71
2022/04/13 14:14:38;;;;;;;9.20;1.38;;;33.60;20.40;;;;;;5971611;29;20631;-71
2022/04/13 14:17:43;;;;;;;10.57;1.38;;;32.70;21.10;;;;;;5970625;29;20050;-71
2022/04/13 14:20:45;;;;;;;7.72;1.60;;;31.80;21.80;;;;;;5968723;29;20039;-71
2022/04/13 14:23:46;;;;;;;5.85;1.40;;;30.90;22.50;;;;;;5934488;29;20065;-71
2022/04/13 14:26:47;;;;;;;8.75;1.55;;;30.20;23.10;;;;;;5956467;29;20046;-71
2022/04/13 14:29:48;;;;;;;8.43;1.75;;;29.50;23.70;;;;;;5973234;29;20442;-71
2022/04/13 14:32:50;;;;;;;11.30;1.80;;;28.80;24.20;;;;;;5973071;29;20062;-70
2022/04/13 14:35:51;;;;;;;25.88;1.98;;;28.40;24.80;;;;;;5957812;29;20053;-70
2022/04/13 14:38:52;;;;;;;7.70;1.80;;;28.00;25.20;;;;;;5972390;29;20039;-71
2022/04/13 14:41:53;;;;;;;3.75;1.13;;;27.70;25.50;;;;;;5971800;29;20381;-72
2022/04/13 14:44:54;;;;;;;8.20;1.45;;;27.50;25.80;;;;;;5968819;29;20232;-71
2022/04/13 14:47:55;;;;;;;10.38;1.60;;;27.30;26.00;;;;;;5969952;29;20050;-71
2022/04/13 14:50:57;;;;;;;5.53;1.27;;;27.10;26.20;;;;;;5973175;29;20043;-71
2022/04/13 14:53:58;;;;;;;8.25;1.35;;;26.90;26.40;;;;;;5954440;29;20039;-73
2022/04/13 14:56:59;;;;;;;3.88;1.30;;;26.80;26.60;;;;;;5972861;29;20476;-69
2022/04/13 15:00:00;;;;;;;5.80;1.58;;;26.70;26.70;;;;;;5955448;29;20047;-70
2022/04/13 15:03:01;;;;;;;2.92;1.40;;;26.60;26.70;;;;;;5968640;29;20372;-70
2022/04/13 15:06:04;;;;;;;3.33;1.33;;;26.60;26.80;;;;;;5971430;29;20046;-72
2022/04/13 15:09:07;;;;;;;8.60;1.50;;;26.60;26.80;;;;;;5969956;29;20508;-73
2022/04/13 15:12:08;;;;;;;4.05;1.17;;;26.50;26.90;;;;;;5973792;29;20046;-70
2022/04/13 15:15:13;;;;;;;8.48;1.55;;;26.50;27.00;;;;;;5967183;29;20054;-71
2022/04/13 15:18:14;;;;;;;6.70;1.25;;;26.30;27.00;;;;;;5961478;29;20054;-71
2022/04/13 15:21:15;;;;;;;6.30;1.48;;;26.30;27.10;;;;;;5960516;29;20053;-71
2022/04/13 15:24:16;;;;;;;9.70;1.83;;;26.30;27.20;;;;;;5960278;29;20417;-72
2022/04/13 15:27:17;;;;;;;5.63;1.50;;;26.30;27.20;;;;;;5961366;29;20031;-71
2022/04/13 15:30:19;;;;;;;4.47;1.02;;;26.30;27.20;;;;;;5961481;29;20537;-71
2022/04/13 15:33:20;;;;;;;6.35;1.20;;;26.40;27.10;;;;;;5962277;29;20049;-70
2022/04/13 15:36:21;;;;;;;5.80;1.77;;;26.40;27.00;;;;;;5959057;29;20034;-71
2022/04/13 15:39:22;;;;;;;3.75;1.60;;;26.40;27.00;;;;;;5956612;29;20031;-72
2022/04/13 15:42:23;;;;;;;8.63;1.40;;;26.40;26.90;;;;;;5980511;29;20054;-72
2022/04/13 15:45:24;;;;;;;4.38;1.45;;;26.40;26.70;;;;;;5960026;29;20133;-72